Terminal Aerodrome Forecast
Issued by NWS Lake Charles, LA

Home | Current Version | Previous Version | Text Only | Print | Product List | Glossary On
Versions: 1 2 3 4 5 6 7 8 9 10 11 12 13 14 15 16
367
FTUS44 KLCH 221120
TAFLFT
TAF
KLFT 221120Z 2212/2312 VRB03KT P6SM -RA VCTS SCT035CB SCT100
     FM221500 20006KT P6SM VCTS BKN040CB
     FM230200 VRB03KT P6SM VCTS FEW030CB BKN250=

USA.gov is the U.S. government's official web portal to all federal, state and local government web resources and services.